National Weather Service United States Department of Commerce

This is an experimental project that is derived straight from the NWS Billings aviation grids. 
There is no human interaction or quality control with this forecast and amendments are not issued.

 

TAF
K3U4 252310Z 2600/2624 00000KT P6SM FEW150
      AMD NOT SKED. UNFL=

TAF
KBHK 252310Z 2600/2624 23006KT P6SM BKN150
     FM260100 VRB05KT P6SM SCT150
     FM261600 27008KT P6SM SKC
     FM262000 28012G20KT P6SM SKC
     FM262300 28009KT P6SM FEW120
      AMD NOT SKED. UNFL=

TAF
K6S0 252310Z 2600/2624 27012G20KT P6SM FEW150
     FM260100 27009KT P6SM FEW150
     FM260200 25008KT P6SM FEW150
     FM261800 26016KT P6SM HZ FEW120
      AMD NOT SKED. UNFL=

TAF
K6S1 252310Z 2600/2624 16009KT P6SM SKC
     FM260200 21008KT P6SM FEW150
     FM260600 18007KT P6SM FEW150
     FM260800 21006KT P6SM SKC
     FM261600 19011KT P6SM SKC
     FM262100 16009KT P6SM FEW150
      AMD NOT SKED. UNFL=

TAF
K00F 252310Z 2600/2624 VRB04KT P6SM FEW150
     FM261000 25006KT P6SM FEW150
     FM261300 VRB05KT P6SM FEW120
     FM262100 29007KT P6SM FEW120
     FM262300 VRB05KT P6SM FEW120
      AMD NOT SKED. UNFL=

TAF
KM46 252310Z 2600/2624 VRB04KT P6SM FEW150
     FM260700 25006KT P6SM FEW150
     FM261000 VRB05KT P6SM FEW120
     FM261900 27007KT P6SM SKC
     FM262300 VRB05KT P6SM FEW150
      AMD NOT SKED. UNFL=

TAF
K6S3 252310Z 2600/2624 25007KT P6SM FEW150
     FM260100 22006KT P6SM FEW150
     FM260600 26006KT P6SM FEW150
     FM260900 VRB05KT P6SM FEW120
     FM261900 27006KT P6SM FEW150
     FM262100 28008KT P6SM HZ FEW150
      AMD NOT SKED. UNFL=

TAF
K97M 252310Z 2600/2624 VRB05KT P6SM SCT150
     FM260800 22008KT P6SM FEW150
     FM261200 25007KT P6SM FEW150
     FM261600 28008KT P6SM SKC
     FM262000 29010G18KT P6SM FEW120
     FM262200 29009KT P6SM FEW120
      AMD NOT SKED. UNFL=

TAF
K1S3 252310Z 2600/2624 VRB05KT P6SM FEW150
     FM260300 VRB03KT P6SM BKN150
     FM260400 VRB03KT P6SM SCT150
     FM261600 27006KT P6SM FEW120
      AMD NOT SKED. UNFL=

TAF
K5U7 252310Z 2600/2624 23009KT P6SM FEW150
      AMD NOT SKED. UNFL=

TAF
K29S 252310Z 2600/2624 22008KT P6SM FEW120
     FM260100 15006KT P6SM FEW120
     FM260300 11006KT P6SM FEW120
     FM261800 VRB05KT P6SM HZ FEW120
     FM262100 22009KT P6SM HZ FEW120
     FM262300 22010G18KT P6SM HZ FEW120
      AMD NOT SKED. UNFL=

TAF
K00U 252310Z 2600/2624 VRB05KT P6SM FEW150
     FM261900 26007KT P6SM FEW120
      AMD NOT SKED. UNFL=

TAF
KHWQ 252310Z 2600/2624 27013G21KT P6SM HZ FEW150
     FM260100 28010KT P6SM HZ FEW150
     FM260300 28009KT P6SM FEW120
     FM261500 26010G18KT P6SM FEW120
     FM261800 27015G24KT P6SM FEW120
     FM262100 26015G24KT P6SM HZ FEW150
      AMD NOT SKED. UNFL=

TAF
K6U7 252310Z 2600/2624 VRB05KT P6SM FEW150
     FM261600 24006KT P6SM SKC
     FM262200 26007KT P6SM FEW150
     FM262300 VRB05KT P6SM FEW150
      AMD NOT SKED. UNFL=

TAF
K6S8 252310Z 2600/2624 23008KT P6SM FEW150
     FM260300 26009KT P6SM FEW150
     FM260800 23009KT P6SM SKC
     FM261100 25008KT P6SM FEW120
     FM262100 24009KT P6SM HZ FEW150
     FM262300 22007KT P6SM HZ FEW150
      AMD NOT SKED. UNFL=

TAF
K80S 252310Z 2600/2624 29009KT P6SM FEW150
     FM260200 VRB05KT P6SM FEW150
     FM260900 28006KT P6SM SKC
     FM261500 26007KT P6SM SKC
      AMD NOT SKED. UNFL=

TAF
KRED 252310Z 2600/2624 VRB05KT P6SM FEW120
     FM261500 19006KT P6SM SKC
     FM261600 14006KT P6SM SKC
     FM261700 11007KT P6SM FEW120
     FM261800 14007KT P6SM FEW120
     FM262100 27007KT P6SM HZ FEW120
      AMD NOT SKED. UNFL=

TAF
KRPX 252310Z 2600/2624 27009KT P6SM FEW150
     FM260200 VRB04KT P6SM FEW150
     FM261500 23006KT P6SM SKC
     FM262000 25009KT P6SM FEW120
      AMD NOT SKED. UNFL=

TAF
K8U0 252310Z 2600/2624 29011KT P6SM FEW150
     FM260300 VRB05KT P6SM FEW150
     FM260500 26006KT P6SM FEW120
     FM262100 26011G19KT P6SM FEW150
     FM262200 27010G18KT P6SM FEW150
     FM262300 27009KT P6SM FEW150
      AMD NOT SKED. UNFL=

TAF
K9U1 252310Z 2600/2624 26011G19KT P6SM FEW120
     FM260100 27006KT P6SM FEW120
     FM260200 32006KT P6SM FEW120
     FM260700 VRB03KT P6SM FEW120
     FM261800 25009KT P6SM HZ FEW120
     FM262300 25011G19KT P6SM HZ FEW150
      AMD NOT SKED. UNFL=